Time;durP1;ratioP1;P1;durP2;ratioP2;P2;SDS_P1;SDS_P2;PMS_P1;PMS_P2;Temp;Humidity;BMP_temperature;BMP_pressure;BME280_temperature;BME280_humidity;BME280_pressure;Samples;Min_cycle;Max_cycle;Signal;HPM_P1;HPM_P2
2021/04/02 00:00:19;;;;;;;27.53;22.70;;;16.90;25.90;;;;;;5071567;28;20457;-68
2021/04/02 00:02:45;;;;;;;27.43;23.47;;;16.90;26.10;;;;;;5073561;28;20871;-66
2021/04/02 00:05:17;;;;;;;28.03;21.63;;;16.90;26.10;;;;;;5073480;28;20168;-67
2021/04/02 00:07:43;;;;;;;30.50;23.60;;;16.90;26.10;;;;;;5065060;28;20430;-65
2021/04/02 00:10:13;;;;;;;30.83;23.77;;;16.90;26.20;;;;;;5052011;28;20425;-67
2021/04/02 00:12:38;;;;;;;32.77;24.33;;;16.90;26.20;;;;;;5053375;28;20589;-66
2021/04/02 00:15:10;;;;;;;29.70;24.10;;;16.80;26.80;;;;;;5052695;28;20414;-66
2021/04/02 00:17:36;;;;;;;28.50;24.17;;;16.70;26.60;;;;;;5052472;28;20275;-66
2021/04/02 00:20:04;;;;;;;32.23;23.20;;;16.60;26.70;;;;;;5052985;28;20447;-68
2021/04/02 00:22:30;;;;;;;30.47;25.20;;;16.50;27.10;;;;;;5050857;28;20243;-66
2021/04/02 00:24:55;;;;;;;35.90;25.73;;;16.40;27.60;;;;;;5053060;28;20417;-67
2021/04/02 00:27:21;;;;;;;30.43;24.10;;;16.30;27.50;;;;;;5052373;28;20226;-67
2021/04/02 00:29:46;;;;;;;30.83;26.20;;;16.30;27.50;;;;;;5052293;28;20168;-65
2021/04/02 00:32:12;;;;;;;30.23;24.40;;;16.20;27.40;;;;;;5052918;28;20245;-67
2021/04/02 00:34:37;;;;;;;36.70;28.17;;;16.20;27.50;;;;;;5052889;28;20663;-68
2021/04/02 00:37:03;;;;;;;31.23;25.27;;;16.20;27.80;;;;;;5051829;28;20554;-67
2021/04/02 00:39:29;;;;;;;41.30;27.40;;;16.20;28.00;;;;;;5052454;28;20761;-65
2021/04/02 00:41:54;;;;;;;31.50;26.00;;;16.30;27.60;;;;;;5052885;28;20418;-65
2021/04/02 00:44:20;;;;;;;31.23;26.77;;;16.20;27.90;;;;;;5052213;28;20682;-68
2021/04/02 00:46:45;;;;;;;36.27;28.03;;;16.20;27.80;;;;;;5052708;28;20173;-65
2021/04/02 00:49:11;;;;;;;33.97;28.63;;;16.20;27.80;;;;;;5051995;28;20172;-65
2021/04/02 00:51:37;;;;;;;34.80;27.93;;;16.20;28.10;;;;;;5051653;28;20187;-66
2021/04/02 00:54:02;;;;;;;35.10;28.20;;;16.10;28.50;;;;;;5052299;28;20191;-68
2021/04/02 00:56:29;;;;;;;36.80;27.37;;;16.00;28.30;;;;;;5052546;28;20434;-67
2021/04/02 00:58:55;;;;;;;34.87;26.63;;;16.00;28.40;;;;;;5051431;28;20762;-65
2021/04/02 01:01:21;;;;;;;34.87;26.70;;;15.90;28.50;;;;;;5052337;28;20557;-66
2021/04/02 01:03:48;;;;;;;36.03;28.97;;;15.90;28.80;;;;;;5052225;28;20495;-65
2021/04/02 01:06:20;;;;;;;32.53;26.83;;;15.90;28.70;;;;;;5051568;28;20179;-66
2021/04/02 01:08:46;;;;;;;30.90;26.57;;;15.90;28.70;;;;;;5051642;28;21114;-65
2021/04/02 01:11:22;;;;;;;30.73;27.03;;;15.90;28.60;;;;;;5052056;28;20415;-65
2021/04/02 01:13:52;;;;;;;32.00;26.07;;;15.90;28.80;;;;;;5051459;28;20836;-65
2021/04/02 01:16:23;;;;;;;27.87;24.87;;;15.80;28.70;;;;;;5052130;28;20826;-66
2021/04/02 01:19:17;;;;;;;31.50;24.77;;;15.80;28.70;;;;;;5051307;28;20410;-65
2021/04/02 01:22:04;;;;;;;29.77;23.77;;;15.90;28.60;;;;;;5051133;28;20462;-66
2021/04/02 01:24:47;;;;;;;29.13;23.73;;;15.80;28.80;;;;;;5051941;28;20453;-66
2021/04/02 01:27:37;;;;;;;28.10;21.73;;;15.80;28.70;;;;;;5051424;28;20415;-67
2021/04/02 01:30:09;;;;;;;36.83;23.30;;;15.70;28.80;;;;;;5051035;28;20466;-67
2021/04/02 01:32:45;;;;;;;23.97;21.43;;;15.60;28.80;;;;;;5051785;28;20402;-67
2021/04/02 01:35:13;;;;;;;27.83;23.07;;;15.60;28.90;;;;;;5051581;28;20410;-67
2021/04/02 01:38:02;;;;;;;28.60;23.17;;;15.70;28.90;;;;;;5050794;28;20920;-65
2021/04/02 01:40:31;;;;;;;26.93;24.07;;;15.60;28.80;;;;;;5051449;28;20474;-66
2021/04/02 01:43:01;;;;;;;30.73;22.20;;;15.70;28.90;;;;;;5051027;28;20879;-67
2021/04/02 01:45:27;;;;;;;26.23;21.23;;;15.50;29.00;;;;;;5051374;28;20786;-66
2021/04/02 01:47:54;;;;;;;31.97;22.63;;;15.50;29.10;;;;;;5050882;28;20471;-65
2021/04/02 01:50:21;;;;;;;28.30;22.30;;;15.50;29.00;;;;;;5049552;28;20560;-66
2021/04/02 01:52:47;;;;;;;23.23;20.43;;;15.40;29.10;;;;;;5051669;28;20442;-66
2021/04/02 01:55:15;;;;;;;28.57;22.40;;;15.40;29.10;;;;;;5051659;28;20446;-66
2021/04/02 01:57:42;;;;;;;24.90;21.30;;;15.40;29.20;;;;;;5050091;28;21192;-65
2021/04/02 02:00:25;;;;;;;24.47;20.67;;;15.40;28.80;;;;;;5049857;28;20457;-67
2021/04/02 02:02:55;;;;;;;24.40;20.50;;;15.30;29.00;;;;;;5051336;28;20444;-66
2021/04/02 02:05:20;;;;;;;23.13;20.53;;;15.40;29.20;;;;;;5050414;28;20493;-67
2021/04/02 02:07:47;;;;;;;23.63;18.80;;;15.30;29.30;;;;;;5050610;28;20878;-66
2021/04/02 02:10:17;;;;;;;24.23;19.17;;;15.30;29.20;;;;;;5051027;28;20716;-66
2021/04/02 02:12:44;;;;;;;20.97;18.57;;;15.20;29.10;;;;;;5050327;28;20434;-68
2021/04/02 02:15:12;;;;;;;19.57;16.90;;;15.10;29.10;;;;;;5050953;28;20411;-66
2021/04/02 02:17:40;;;;;;;23.43;17.90;;;15.00;29.30;;;;;;5050438;28;21119;-66
2021/04/02 02:20:07;;;;;;;23.33;18.07;;;15.00;29.40;;;;;;5055747;28;20453;-67
2021/04/02 02:22:33;;;;;;;20.30;17.37;;;15.10;29.30;;;;;;5070181;28;20916;-66
2021/04/02 02:25:01;;;;;;;23.33;18.07;;;15.00;29.40;;;;;;5051724;28;20436;-66
2021/04/02 02:27:26;;;;;;;22.43;19.10;;;15.00;29.40;;;;;;5049323;28;20413;-67
2021/04/02 02:29:53;;;;;;;18.83;16.83;;;14.90;29.50;;;;;;5050696;28;20493;-67
2021/04/02 02:32:18;;;;;;;22.17;18.50;;;14.90;29.80;;;;;;5068265;28;20742;-67
2021/04/02 02:34:44;;;;;;;20.50;18.33;;;14.90;29.60;;;;;;5070001;28;20496;-64
2021/04/02 02:37:10;;;;;;;22.63;17.80;;;14.90;29.70;;;;;;5070231;28;20177;-66
2021/04/02 02:39:36;;;;;;;19.23;16.80;;;14.90;29.50;;;;;;5070487;28;20199;-66
2021/04/02 02:42:05;;;;;;;16.20;14.60;;;14.90;29.40;;;;;;5069672;28;20490;-67
2021/04/02 02:44:31;;;;;;;18.07;16.07;;;14.90;29.30;;;;;;5070865;28;21156;-67
2021/04/02 02:46:56;;;;;;;19.07;14.53;;;14.70;29.70;;;;;;5070643;28;20402;-67
2021/04/02 02:49:24;;;;;;;16.93;13.53;;;14.60;29.70;;;;;;5068912;28;20408;-66
2021/04/02 02:51:50;;;;;;;15.20;13.67;;;14.60;29.70;;;;;;5052690;28;20184;-66
2021/04/02 02:54:20;;;;;;;16.70;14.27;;;14.60;29.60;;;;;;5050339;28;20856;-66
2021/04/02 02:56:48;;;;;;;14.90;12.67;;;14.60;29.70;;;;;;5049700;28;20411;-66
2021/04/02 02:59:17;;;;;;;12.93;11.50;;;14.50;29.70;;;;;;5049914;28;20403;-65
2021/04/02 03:01:45;;;;;;;17.60;13.00;;;14.50;29.90;;;;;;5050438;28;20450;-69
2021/04/02 03:04:12;;;;;;;14.90;12.07;;;14.40;30.00;;;;;;5049642;28;20439;-65
2021/04/02 03:06:40;;;;;;;14.00;12.50;;;14.40;30.00;;;;;;5050543;28;20425;-65
2021/04/02 03:09:08;;;;;;;16.43;14.47;;;14.20;30.20;;;;;;5049857;28;20696;-67
2021/04/02 03:11:34;;;;;;;16.07;14.40;;;14.40;30.70;;;;;;5049700;28;20830;-66
2021/04/02 03:14:01;;;;;;;16.70;14.67;;;14.40;30.80;;;;;;5050523;28;20442;-66
2021/04/02 03:16:28;;;;;;;21.80;16.03;;;14.40;31.00;;;;;;5050485;28;20438;-66
2021/04/02 03:18:57;;;;;;;19.80;14.90;;;14.30;30.90;;;;;;5048957;28;20411;-68
2021/04/02 03:21:23;;;;;;;15.63;14.03;;;14.10;31.00;;;;;;5050185;28;20463;-65
2021/04/02 03:23:50;;;;;;;14.47;12.97;;;14.20;30.80;;;;;;5049900;28;20849;-65
2021/04/02 03:26:17;;;;;;;14.30;12.90;;;14.20;30.00;;;;;;5049575;28;20402;-65
2021/04/02 03:28:44;;;;;;;14.13;12.67;;;14.20;30.00;;;;;;5049514;28;20426;-68
2021/04/02 03:31:11;;;;;;;16.07;12.20;;;14.20;30.00;;;;;;5050812;28;20464;-66
2021/04/02 03:33:41;;;;;;;12.17;10.97;;;14.10;29.70;;;;;;5053592;28;20468;-69
2021/04/02 03:36:11;;;;;;;11.60;10.40;;;14.00;29.20;;;;;;5073874;28;20479;-65
2021/04/02 03:38:39;;;;;;;10.77;9.63;;;14.00;28.90;;;;;;5068456;28;20442;-66
2021/04/02 03:41:12;;;;;;;12.50;11.20;;;14.00;28.80;;;;;;5053309;28;20462;-68
2021/04/02 03:43:39;;;;;;;14.83;11.70;;;14.00;28.90;;;;;;5053861;28;20438;-68
2021/04/02 03:46:08;;;;;;;13.17;10.60;;;14.10;28.90;;;;;;5053804;28;20507;-66
2021/04/02 03:48:36;;;;;;;11.97;9.90;;;14.00;29.00;;;;;;5052472;28;20905;-67
2021/04/02 03:51:05;;;;;;;11.83;10.30;;;13.90;28.50;;;;;;5057132;28;20429;-64
2021/04/02 03:53:43;;;;;;;12.67;10.17;;;13.90;28.60;;;;;;5073459;28;20483;-66
2021/04/02 03:56:14;;;;;;;9.93;8.97;;;14.00;27.60;;;;;;5072884;28;20417;-64
2021/04/02 03:58:44;;;;;;;9.70;8.73;;;13.90;27.10;;;;;;5073079;28;20417;-67
2021/04/02 04:01:15;;;;;;;12.43;8.50;;;13.70;26.70;;;;;;5073373;28;20507;-66
2021/04/02 04:03:44;;;;;;;11.47;9.73;;;13.70;27.30;;;;;;5072840;28;20443;-65
2021/04/02 04:06:15;;;;;;;11.37;8.80;;;13.60;26.40;;;;;;5073432;28;20463;-65
2021/04/02 04:08:43;;;;;;;9.20;8.40;;;13.60;26.60;;;;;;5072823;28;20437;-67
2021/04/02 04:11:10;;;;;;;9.53;7.40;;;13.60;26.30;;;;;;5072743;28;20432;-68
2021/04/02 04:13:38;;;;;;;8.53;7.43;;;13.40;26.60;;;;;;5073544;28;20441;-66
2021/04/02 04:16:05;;;;;;;8.37;6.90;;;13.40;25.70;;;;;;5073423;28;20423;-66
2021/04/02 04:18:34;;;;;;;7.57;6.77;;;13.40;25.50;;;;;;5072242;28;20414;-67
2021/04/02 04:21:02;;;;;;;10.93;7.87;;;13.40;25.50;;;;;;5073154;28;20457;-67
2021/04/02 04:23:29;;;;;;;9.50;6.10;;;13.20;25.40;;;;;;5073171;28;20425;-66
2021/04/02 04:25:57;;;;;;;5.73;5.30;;;13.20;25.40;;;;;;5072614;28;20410;-68
2021/04/02 04:28:25;;;;;;;6.20;5.60;;;13.30;25.40;;;;;;5072475;28;20514;-65
2021/04/02 04:30:54;;;;;;;7.20;5.93;;;13.20;25.30;;;;;;5073003;28;20449;-65
2021/04/02 04:33:23;;;;;;;7.70;4.40;;;13.30;24.60;;;;;;5072176;28;21009;-64
2021/04/02 04:35:50;;;;;;;10.70;4.83;;;13.30;24.20;;;;;;5073096;28;20892;-65
2021/04/02 04:38:17;;;;;;;5.07;4.40;;;13.20;23.90;;;;;;5072279;28;20506;-65
2021/04/02 04:40:43;;;;;;;4.80;4.40;;;13.20;24.10;;;;;;5071916;28;20461;-65
2021/04/02 04:43:13;;;;;;;4.37;3.93;;;13.10;23.90;;;;;;5071810;28;20440;-65
2021/04/02 04:45:39;;;;;;;4.33;3.93;;;13.20;23.80;;;;;;5072078;28;20791;-66
2021/04/02 04:48:05;;;;;;;4.40;3.80;;;13.10;23.60;;;;;;5071496;28;20414;-66
2021/04/02 04:50:31;;;;;;;4.70;3.67;;;13.10;23.30;;;;;;5072670;28;20432;-64
2021/04/02 04:53:03;;;;;;;5.57;3.80;;;13.00;23.40;;;;;;5072498;28;20527;-66
2021/04/02 04:55:32;;;;;;;5.13;3.47;;;12.90;23.20;;;;;;5071761;28;20175;-67
2021/04/02 04:57:58;;;;;;;5.43;3.10;;;12.80;23.50;;;;;;5071959;28;20417;-67
2021/04/02 05:00:25;;;;;;;4.00;3.47;;;12.70;23.30;;;;;;5072476;28;20460;-66
2021/04/02 05:02:52;;;;;;;4.20;3.60;;;12.60;23.40;;;;;;5071943;28;20936;-67
2021/04/02 05:05:28;;;;;;;3.43;3.23;;;12.60;23.50;;;;;;5070602;28;20452;-66
2021/04/02 05:07:56;;;;;;;3.43;3.13;;;12.40;23.30;;;;;;5070391;28;20413;-65
2021/04/02 05:10:23;;;;;;;3.30;3.00;;;12.40;22.70;;;;;;5071581;28;20471;-66
2021/04/02 05:12:50;;;;;;;3.97;3.33;;;12.20;23.20;;;;;;5072381;28;21111;-65
2021/04/02 05:15:19;;;;;;;3.70;3.13;;;12.30;23.20;;;;;;5072283;28;20421;-65
2021/04/02 05:17:45;;;;;;;2.67;2.47;;;12.30;23.20;;;;;;5069301;28;20417;-66
2021/04/02 05:20:11;;;;;;;3.03;2.80;;;12.20;23.10;;;;;;5070146;28;20869;-66
2021/04/02 05:22:36;;;;;;;3.73;3.00;;;12.30;22.90;;;;;;5070205;28;20440;-65
2021/04/02 05:25:04;;;;;;;3.10;2.80;;;12.20;23.30;;;;;;5069687;28;20912;-67
2021/04/02 05:27:30;;;;;;;3.27;2.97;;;12.00;23.50;;;;;;5069671;28;20274;-68
2021/04/02 05:29:56;;;;;;;4.40;3.03;;;12.10;23.50;;;;;;5070535;28;20455;-65
2021/04/02 05:32:22;;;;;;;3.07;2.80;;;12.10;23.90;;;;;;5070665;28;20191;-63
2021/04/02 05:34:47;;;;;;;4.37;3.20;;;12.10;23.70;;;;;;5071892;28;20406;-65
2021/04/02 05:37:13;;;;;;;3.03;2.73;;;11.80;24.10;;;;;;5070371;28;20305;-64
2021/04/02 05:39:39;;;;;;;4.13;3.30;;;12.00;24.30;;;;;;5070664;28;20183;-67
2021/04/02 05:42:06;;;;;;;4.37;3.27;;;11.90;23.90;;;;;;5071922;28;20178;-65
2021/04/02 05:44:34;;;;;;;4.53;3.40;;;12.10;24.20;;;;;;5071736;28;20203;-64
2021/04/02 05:47:05;;;;;;;4.37;3.77;;;12.00;24.20;;;;;;5070528;28;20823;-64
2021/04/02 05:49:30;;;;;;;3.57;3.27;;;11.90;25.00;;;;;;5071444;28;20401;-65
2021/04/02 05:51:57;;;;;;;4.03;3.30;;;11.80;24.90;;;;;;5071457;28;20467;-64
2021/04/02 05:54:31;;;;;;;3.63;3.33;;;11.90;24.90;;;;;;5070552;28;20719;-65
2021/04/02 05:56:57;;;;;;;4.10;3.80;;;12.00;24.60;;;;;;5070417;28;20441;-65
2021/04/02 05:59:23;;;;;;;3.77;3.47;;;12.00;24.60;;;;;;5071049;28;20786;-65
2021/04/02 06:01:50;;;;;;;5.17;4.30;;;11.70;24.60;;;;;;5070427;28;20455;-64
2021/04/02 06:04:16;;;;;;;4.33;3.93;;;11.70;25.20;;;;;;5071070;28;20191;-67
2021/04/02 06:06:42;;;;;;;7.53;4.47;;;12.00;25.30;;;;;;5071124;28;20406;-65
2021/04/02 06:09:08;;;;;;;4.53;4.07;;;12.00;24.60;;;;;;5069749;28;20408;-65
2021/04/02 06:11:35;;;;;;;8.63;4.07;;;12.00;24.70;;;;;;5070959;28;20263;-65
2021/04/02 06:14:00;;;;;;;5.10;4.60;;;12.00;25.00;;;;;;5071061;28;20425;-66
2021/04/02 06:16:26;;;;;;;3.70;3.40;;;12.00;25.40;;;;;;5061730;28;20486;-63
2021/04/02 06:18:56;;;;;;;7.13;4.00;;;12.30;33.70;;;;;;5052549;28;20198;-65
2021/04/02 06:21:25;;;;;;;4.83;3.60;;;13.30;32.20;;;;;;5050860;28;20200;-66
2021/04/02 06:23:51;;;;;;;4.90;4.50;;;13.60;28.50;;;;;;5050170;28;20427;-66
2021/04/02 06:26:16;;;;;;;3.70;3.40;;;13.10;26.40;;;;;;5050722;28;20406;-65
2021/04/02 06:28:42;;;;;;;4.37;3.30;;;13.70;29.50;;;;;;5050285;28;20305;-66
2021/04/02 06:31:18;;;;;;;6.87;3.70;;;13.40;27.70;;;;;;5050716;28;20176;-65
2021/04/02 06:33:52;;;;;;;5.03;4.60;;;13.60;25.60;;;;;;5050787;28;20433;-65
2021/04/02 06:36:22;;;;;;;4.57;4.17;;;13.30;28.00;;;;;;5051130;28;20401;-65
2021/04/02 06:38:55;;;;;;;3.03;2.83;;;13.30;27.00;;;;;;5049734;28;20426;-67
2021/04/02 06:41:22;;;;;;;4.43;4.03;;;13.70;32.90;;;;;;5050731;28;20536;-65
2021/04/02 06:43:50;;;;;;;5.00;4.50;;;14.30;27.30;;;;;;5050459;28;20438;-65
2021/04/02 06:46:27;;;;;;;4.93;4.50;;;13.70;22.60;;;;;;5050022;28;20415;-63
2021/04/02 06:49:12;;;;;;;5.70;5.20;;;13.40;23.60;;;;;;5050204;28;20399;-65
2021/04/02 06:51:39;;;;;;;4.90;4.50;;;13.10;23.70;;;;;;5049385;28;20510;-64
2021/04/02 06:54:07;;;;;;;6.63;5.50;;;12.80;24.80;;;;;;5049333;28;20438;-65
2021/04/02 06:56:34;;;;;;;6.00;5.20;;;12.60;25.00;;;;;;5050523;28;20410;-65
2021/04/02 06:59:00;;;;;;;7.30;4.67;;;12.40;24.90;;;;;;5049871;28;20419;-67
2021/04/02 07:01:35;;;;;;;5.93;5.43;;;12.20;25.20;;;;;;5049774;28;20454;-64
2021/04/02 07:04:01;;;;;;;4.90;4.50;;;12.20;25.50;;;;;;5050352;28;20430;-66
2021/04/02 07:06:27;;;;;;;5.93;5.13;;;12.20;25.50;;;;;;5050529;28;20410;-63
2021/04/02 07:08:53;;;;;;;4.80;4.40;;;12.30;25.20;;;;;;5051054;28;20402;-65
2021/04/02 07:11:20;;;;;;;5.17;4.60;;;12.20;25.40;;;;;;5054711;28;20438;-66
2021/04/02 07:13:54;;;;;;;7.33;5.53;;;12.20;25.20;;;;;;5054438;28;20434;-65
2021/04/02 07:16:22;;;;;;;7.87;5.50;;;12.20;25.30;;;;;;5053881;28;20410;-65
2021/04/02 07:18:48;;;;;;;6.30;5.70;;;12.20;25.30;;;;;;5053807;28;20416;-66
2021/04/02 07:21:15;;;;;;;6.20;5.60;;;12.20;25.50;;;;;;5054330;28;20452;-65
2021/04/02 07:23:41;;;;;;;6.50;5.90;;;12.30;25.40;;;;;;5054138;28;20465;-64
2021/04/02 07:26:08;;;;;;;6.20;5.70;;;12.30;25.50;;;;;;5054547;28;20413;-64
2021/04/02 07:28:36;;;;;;;7.70;6.50;;;12.30;25.80;;;;;;5054060;28;20406;-64
2021/04/02 07:31:04;;;;;;;6.27;5.73;;;12.20;25.90;;;;;;5053741;28;20944;-65
2021/04/02 07:33:30;;;;;;;6.97;6.37;;;12.20;25.80;;;;;;5054411;28;20470;-65
2021/04/02 07:36:01;;;;;;;7.53;6.93;;;12.10;25.90;;;;;;5054171;28;20453;-66
2021/04/02 07:38:30;;;;;;;6.70;6.10;;;12.20;26.20;;;;;;5052907;28;20450;-64
2021/04/02 07:40:56;;;;;;;8.07;7.30;;;12.20;26.00;;;;;;5053344;28;20554;-64
2021/04/02 07:43:29;;;;;;;6.97;6.30;;;12.10;26.30;;;;;;5054178;28;20884;-64
2021/04/02 07:46:15;;;;;;;6.93;6.40;;;12.00;26.10;;;;;;5052748;28;20493;-64
2021/04/02 07:48:41;;;;;;;9.57;6.80;;;12.00;26.20;;;;;;5054089;28;20947;-65
2021/04/02 07:51:07;;;;;;;6.90;6.40;;;12.20;26.40;;;;;;5053674;28;20467;-64
2021/04/02 07:53:33;;;;;;;7.67;6.93;;;12.20;26.20;;;;;;5053227;28;20933;-64
2021/04/02 07:56:03;;;;;;;8.80;7.93;;;12.20;26.20;;;;;;5054004;28;20179;-63
2021/04/02 07:58:30;;;;;;;7.73;6.93;;;12.20;26.30;;;;;;5053408;28;20179;-63
2021/04/02 08:00:58;;;;;;;8.13;6.60;;;12.20;26.40;;;;;;5052898;28;20454;-66
2021/04/02 08:03:30;;;;;;;8.07;7.00;;;12.20;26.40;;;;;;5053426;28;20513;-64
2021/04/02 08:06:10;;;;;;;8.47;7.50;;;12.30;26.40;;;;;;5053673;28;20414;-65
2021/04/02 08:08:46;;;;;;;8.10;7.10;;;12.40;26.30;;;;;;5052139;28;20438;-62
2021/04/02 08:11:16;;;;;;;8.10;7.40;;;12.30;26.40;;;;;;5053499;28;20441;-63
2021/04/02 08:14:09;;;;;;;8.00;7.23;;;12.30;26.40;;;;;;5053522;28;20466;-64
2021/04/02 08:16:46;;;;;;;8.13;7.40;;;12.40;26.40;;;;;;5051109;28;20438;-66
2021/04/02 08:19:11;;;;;;;8.30;7.50;;;12.40;26.80;;;;;;5052290;28;20407;-64
2021/04/02 08:21:39;;;;;;;8.47;7.57;;;12.50;26.10;;;;;;5052636;28;20468;-65
2021/04/02 08:24:07;;;;;;;8.07;7.37;;;12.60;26.20;;;;;;5051152;28;20196;-65
2021/04/02 08:26:34;;;;;;;8.40;7.73;;;12.50;26.40;;;;;;5053212;28;20556;-65
2021/04/02 08:29:02;;;;;;;14.33;11.10;;;12.80;25.80;;;;;;5052871;28;21011;-64
2021/04/02 08:31:27;;;;;;;9.83;7.70;;;12.70;25.90;;;;;;5051923;28;20501;-65
2021/04/02 08:33:54;;;;;;;8.63;7.83;;;12.70;26.00;;;;;;5053275;28;20837;-64
2021/04/02 08:36:21;;;;;;;9.30;8.43;;;12.70;25.80;;;;;;5052858;28;20198;-65
2021/04/02 08:38:48;;;;;;;8.70;7.83;;;12.80;26.00;;;;;;5051409;28;20437;-65
2021/04/02 08:41:18;;;;;;;9.10;8.00;;;12.90;25.80;;;;;;5052925;28;20467;-64
2021/04/02 08:43:43;;;;;;;9.50;8.63;;;12.90;25.80;;;;;;5052825;28;20762;-64
2021/04/02 08:46:09;;;;;;;8.83;7.90;;;13.10;25.30;;;;;;5051709;28;20402;-65
2021/04/02 08:48:35;;;;;;;9.43;8.40;;;13.10;25.60;;;;;;5052370;28;20407;-64
2021/04/02 08:51:01;;;;;;;8.73;7.93;;;13.10;25.70;;;;;;5052868;28;20194;-62
2021/04/02 08:53:41;;;;;;;9.53;8.60;;;13.10;25.80;;;;;;5050633;28;20274;-63
2021/04/02 08:56:07;;;;;;;9.93;9.03;;;13.10;25.50;;;;;;5052882;28;20414;-64
2021/04/02 08:58:36;;;;;;;10.80;8.60;;;13.30;25.50;;;;;;5052048;28;20813;-66
2021/04/02 09:01:03;;;;;;;9.27;8.43;;;13.20;25.40;;;;;;5051189;28;20332;-64
2021/04/02 09:03:29;;;;;;;10.33;9.20;;;13.20;25.40;;;;;;5052445;28;20905;-63
2021/04/02 09:05:55;;;;;;;9.50;8.70;;;13.30;25.40;;;;;;5052468;28;20414;-63
2021/04/02 09:08:21;;;;;;;10.00;9.20;;;13.40;25.50;;;;;;5051130;28;20407;-63
2021/04/02 09:10:48;;;;;;;10.23;9.17;;;13.50;25.20;;;;;;5052298;28;20453;-64
2021/04/02 09:13:13;;;;;;;10.33;9.43;;;13.60;25.20;;;;;;5052297;28;20191;-62
2021/04/02 09:15:39;;;;;;;9.63;8.80;;;13.70;25.00;;;;;;5049702;28;20430;-64
2021/04/02 09:18:19;;;;;;;9.23;8.43;;;13.60;25.00;;;;;;5051642;28;20214;-64
2021/04/02 09:20:45;;;;;;;9.20;8.40;;;13.60;25.00;;;;;;5050579;28;20211;-63
2021/04/02 09:23:12;;;;;;;9.37;8.33;;;13.70;24.80;;;;;;5051195;28;20817;-65
2021/04/02 09:25:42;;;;;;;9.43;8.60;;;13.80;24.90;;;;;;5052144;28;20406;-64
2021/04/02 09:28:08;;;;;;;9.80;8.93;;;13.80;24.60;;;;;;5069339;28;20432;-62
2021/04/02 09:30:34;;;;;;;10.70;9.60;;;13.90;24.70;;;;;;5073441;28;20484;-62
2021/04/02 09:33:00;;;;;;;9.60;8.70;;;14.20;24.20;;;;;;5070883;28;20195;-62
2021/04/02 09:35:25;;;;;;;9.80;8.90;;;14.00;24.20;;;;;;5071761;28;20409;-60
2021/04/02 09:37:52;;;;;;;9.13;8.30;;;13.90;24.50;;;;;;5070710;28;20318;-63
2021/04/02 09:40:18;;;;;;;9.70;8.90;;;13.90;24.60;;;;;;5071860;28;20196;-63
2021/04/02 09:42:47;;;;;;;10.43;9.53;;;13.90;24.80;;;;;;5071918;28;20513;-63
2021/04/02 09:45:14;;;;;;;10.00;9.00;;;13.80;24.10;;;;;;5071209;28;20646;-64
2021/04/02 09:47:46;;;;;;;10.17;9.27;;;13.80;24.60;;;;;;5071382;28;20413;-64
2021/04/02 09:50:15;;;;;;;10.50;9.50;;;13.90;24.60;;;;;;5071568;28;20414;-63
2021/04/02 09:52:43;;;;;;;12.03;10.57;;;14.00;24.80;;;;;;5071307;28;20879;-64
2021/04/02 09:55:09;;;;;;;10.77;9.87;;;14.00;23.90;;;;;;5071863;28;20405;-64
2021/04/02 09:57:35;;;;;;;9.80;9.00;;;14.00;24.00;;;;;;5070560;28;20950;-64
2021/04/02 10:00:03;;;;;;;10.20;9.20;;;13.90;24.10;;;;;;5070447;28;20418;-64
2021/04/02 10:02:28;;;;;;;9.73;8.73;;;13.80;23.90;;;;;;5071223;28;20414;-64
2021/04/02 10:04:54;;;;;;;10.90;9.90;;;14.10;23.80;;;;;;5071400;28;20492;-64
2021/04/02 10:07:20;;;;;;;10.40;9.33;;;14.40;23.30;;;;;;5069796;28;20869;-63
2021/04/02 10:09:47;;;;;;;11.67;10.57;;;14.70;22.80;;;;;;5071329;28;20179;-64
2021/04/02 10:12:13;;;;;;;9.50;8.70;;;14.50;22.70;;;;;;5071030;28;20180;-63
2021/04/02 10:14:38;;;;;;;10.93;9.67;;;14.30;22.10;;;;;;5070325;28;20483;-63
2021/04/02 10:17:09;;;;;;;9.43;8.63;;;14.40;22.30;;;;;;5070493;28;20175;-63
2021/04/02 10:19:35;;;;;;;8.87;8.03;;;14.70;22.30;;;;;;5070975;28;20179;-64
2021/04/02 10:22:00;;;;;;;10.93;10.03;;;15.00;21.80;;;;;;5070147;28;20564;-64
2021/04/02 10:24:26;;;;;;;9.43;8.73;;;15.00;22.10;;;;;;5070949;28;20425;-64
2021/04/02 10:26:51;;;;;;;11.30;10.10;;;15.20;22.30;;;;;;5070812;28;20191;-63
2021/04/02 10:29:17;;;;;;;10.20;9.33;;;15.00;21.70;;;;;;5069911;28;20665;-65
2021/04/02 10:31:42;;;;;;;9.53;8.67;;;14.90;22.00;;;;;;5069821;28;20190;-64
2021/04/02 10:34:08;;;;;;;10.70;9.27;;;15.20;21.30;;;;;;5070637;28;20205;-63
2021/04/02 10:36:33;;;;;;;10.57;9.40;;;15.60;20.10;;;;;;5066689;28;20179;-65
2021/04/02 10:38:59;;;;;;;10.03;9.10;;;15.70;20.40;;;;;;5058773;28;20214;-64
2021/04/02 10:41:25;;;;;;;10.27;9.37;;;15.70;20.00;;;;;;5050049;28;20274;-64
2021/04/02 10:43:51;;;;;;;10.67;9.77;;;15.80;20.40;;;;;;5049155;28;20250;-63
2021/04/02 10:46:17;;;;;;;9.67;8.87;;;15.90;19.50;;;;;;5050777;28;20245;-64
2021/04/02 10:48:42;;;;;;;11.10;10.20;;;15.80;18.90;;;;;;5049938;28;20406;-64
2021/04/02 10:51:08;;;;;;;9.30;8.50;;;16.00;19.00;;;;;;5049839;28;20171;-64
2021/04/02 10:53:34;;;;;;;9.77;8.77;;;15.90;18.20;;;;;;5050239;28;20230;-64
2021/04/02 10:56:03;;;;;;;10.20;9.30;;;16.20;19.10;;;;;;5049839;28;20438;-63
2021/04/02 10:58:29;;;;;;;10.10;9.30;;;16.30;19.40;;;;;;5049095;28;20176;-63
2021/04/02 11:00:54;;;;;;;10.40;9.60;;;16.20;18.50;;;;;;5050318;28;20465;-64
2021/04/02 11:03:20;;;;;;;10.63;8.90;;;16.30;19.20;;;;;;5050299;28;20454;-64
2021/04/02 11:05:45;;;;;;;9.03;8.33;;;16.30;18.50;;;;;;5071078;28;20730;-64
2021/04/02 11:08:11;;;;;;;12.13;9.73;;;16.30;18.20;;;;;;5067114;28;20218;-63
2021/04/02 11:10:36;;;;;;;9.53;8.63;;;16.40;18.50;;;;;;5070121;28;20241;-64
2021/04/02 11:13:02;;;;;;;8.53;7.70;;;16.50;18.20;;;;;;5068372;28;20203;-65
2021/04/02 11:15:27;;;;;;;9.90;9.00;;;16.60;17.40;;;;;;5070191;28;20179;-64
2021/04/02 11:17:53;;;;;;;10.00;9.10;;;16.60;17.10;;;;;;5069884;28;20171;-64
2021/04/02 11:20:21;;;;;;;9.07;8.17;;;16.40;17.50;;;;;;5069428;28;20346;-64
2021/04/02 11:22:47;;;;;;;9.10;8.30;;;16.50;18.00;;;;;;5070193;28;20681;-63
2021/04/02 11:25:14;;;;;;;9.00;8.20;;;16.60;16.60;;;;;;5070199;28;20420;-63
2021/04/02 11:27:40;;;;;;;8.27;7.40;;;16.70;17.50;;;;;;5069342;28;20402;-65
2021/04/02 11:30:09;;;;;;;8.13;7.37;;;16.90;17.10;;;;;;5070017;28;20480;-65
2021/04/02 11:32:35;;;;;;;9.07;8.33;;;17.00;18.00;;;;;;5070335;28;20486;-64
2021/04/02 11:35:00;;;;;;;8.73;7.93;;;17.00;17.90;;;;;;5069462;28;20430;-65
2021/04/02 11:37:26;;;;;;;8.13;7.53;;;17.10;17.30;;;;;;5069367;28;20176;-65
2021/04/02 11:39:52;;;;;;;7.80;7.03;;;17.30;17.30;;;;;;5069865;28;20192;-64
2021/04/02 11:42:17;;;;;;;10.40;7.00;;;17.30;16.50;;;;;;5069394;28;20179;-64
2021/04/02 11:44:43;;;;;;;8.37;7.67;;;17.20;16.40;;;;;;5070114;28;20191;-64
2021/04/02 11:47:09;;;;;;;9.73;7.10;;;17.40;15.70;;;;;;5069666;28;20182;-63
2021/04/02 11:49:36;;;;;;;7.47;6.90;;;17.30;15.40;;;;;;5069425;28;20253;-65
2021/04/02 11:52:03;;;;;;;7.00;6.50;;;17.20;17.30;;;;;;5069847;28;20187;-63
2021/04/02 11:54:29;;;;;;;6.90;6.30;;;17.20;16.90;;;;;;5071317;28;20951;-64
2021/04/02 11:56:54;;;;;;;10.30;7.50;;;17.20;16.40;;;;;;5073065;28;20416;-64
2021/04/02 11:59:20;;;;;;;7.23;6.70;;;17.40;16.30;;;;;;5073196;28;20176;-64
2021/04/02 12:01:45;;;;;;;7.60;7.00;;;17.30;15.90;;;;;;5073460;28;20203;-65
2021/04/02 12:04:11;;;;;;;11.20;10.30;;;16.90;16.40;;;;;;5073373;28;20195;-63
2021/04/02 12:06:38;;;;;;;7.40;6.80;;;16.90;16.60;;;;;;5073078;28;20203;-64
2021/04/02 12:09:04;;;;;;;7.90;7.10;;;17.00;16.30;;;;;;5072883;28;20180;-64
2021/04/02 12:11:30;;;;;;;7.70;7.10;;;16.80;16.40;;;;;;5073461;28;20413;-64
2021/04/02 12:13:56;;;;;;;6.90;6.40;;;16.80;16.10;;;;;;5072649;28;20433;-65
2021/04/02 12:16:21;;;;;;;7.40;6.80;;;16.80;15.50;;;;;;5073308;28;20194;-65
2021/04/02 12:18:47;;;;;;;6.23;5.63;;;16.70;16.80;;;;;;5072666;28;20217;-64
2021/04/02 12:21:13;;;;;;;6.63;6.13;;;16.70;15.60;;;;;;5072477;28;20282;-66
2021/04/02 12:23:38;;;;;;;7.27;6.63;;;16.50;16.00;;;;;;5072033;28;20290;-64
2021/04/02 12:26:04;;;;;;;6.30;5.80;;;16.60;17.40;;;;;;5073376;28;20175;-66
2021/04/02 12:28:30;;;;;;;6.87;6.17;;;16.70;15.80;;;;;;5071845;28;20179;-66
2021/04/02 12:30:55;;;;;;;8.23;6.37;;;16.60;15.80;;;;;;5073069;28;20541;-66
2021/04/02 12:33:21;;;;;;;6.53;6.03;;;16.70;16.40;;;;;;5071910;28;20219;-64
2021/04/02 12:35:46;;;;;;;6.07;5.57;;;16.50;16.80;;;;;;5072592;28;20571;-62
2021/04/02 12:38:13;;;;;;;6.30;5.83;;;16.40;16.80;;;;;;5072416;28;20198;-65
2021/04/02 12:40:39;;;;;;;7.50;6.10;;;16.40;15.50;;;;;;5072934;28;20252;-65